createdAt,value
2018-05-13T00:00:24.178Z,1006.12
2018-05-13T00:01:24.189Z,1006.13
2018-05-13T00:02:24.218Z,1006.10
2018-05-13T00:03:24.241Z,1006.11
2018-05-13T00:04:24.247Z,1006.12
2018-05-13T00:05:24.266Z,1006.12
2018-05-13T00:06:24.283Z,1006.10
2018-05-13T00:07:24.299Z,1006.11
2018-05-13T00:08:24.319Z,1006.10
2018-05-13T00:09:24.345Z,1006.07
2018-05-13T00:10:24.354Z,1006.09
2018-05-13T00:11:24.423Z,1006.07
2018-05-13T00:12:24.399Z,1006.05
2018-05-13T00:13:24.416Z,1006.08
2018-05-13T00:14:24.429Z,1006.03
2018-05-13T00:15:24.447Z,1006.02
2018-05-13T00:16:24.466Z,1006.03
2018-05-13T00:17:24.481Z,1006.02
2018-05-13T00:18:24.498Z,1006.04
2018-05-13T00:19:24.525Z,1006.03
2018-05-13T00:20:24.534Z,1006.05
2018-05-13T00:21:24.550Z,1006.02
2018-05-13T00:22:24.568Z,1006.00
2018-05-13T00:23:24.587Z,1005.98
2018-05-13T00:24:24.609Z,1006.01
2018-05-13T00:25:24.626Z,1006.01
2018-05-13T00:26:24.641Z,1005.99
2018-05-13T00:27:24.657Z,1006.00
2018-05-13T00:28:24.679Z,1006.02
2018-05-13T00:29:24.706Z,1006.02
2018-05-13T00:30:24.722Z,1006.04
2018-05-13T00:31:24.730Z,1006.00
2018-05-13T00:32:24.755Z,1006.01
2018-05-13T00:33:24.767Z,1006.01
2018-05-13T00:34:24.785Z,1006.04
2018-05-13T00:35:25.110Z,1006.05
2018-05-13T00:36:24.830Z,1006.02
2018-05-13T00:37:24.849Z,1006.01
2018-05-13T00:38:24.854Z,1006.01
2018-05-13T00:39:24.871Z,1005.98
2018-05-13T00:40:24.898Z,1005.97
2018-05-13T00:41:24.909Z,1005.99
2018-05-13T00:42:24.928Z,1006.00
2018-05-13T00:43:24.946Z,1005.94
2018-05-13T00:44:24.971Z,1005.94
2018-05-13T00:45:24.984Z,1005.91
2018-05-13T00:46:24.998Z,1005.92
2018-05-13T00:47:25.194Z,1005.90
2018-05-13T00:48:25.041Z,1005.90
2018-05-13T00:49:25.266Z,1005.86
2018-05-13T00:50:25.276Z,1005.87
2018-05-13T00:52:25.107Z,1005.87
2018-05-13T00:53:25.125Z,1005.93
2018-05-13T00:54:25.144Z,1005.91
2018-05-13T00:55:25.160Z,1005.92
2018-05-13T00:56:25.179Z,1005.90
2018-05-13T00:57:25.197Z,1005.91
2018-05-13T00:58:25.212Z,1005.90
2018-05-13T00:59:25.239Z,1005.91
2018-05-13T01:00:25.253Z,1005.85
2018-05-13T01:01:25.271Z,1005.87
2018-05-13T01:02:25.286Z,1005.85
2018-05-13T01:03:25.299Z,1005.85
2018-05-13T01:04:25.322Z,1005.85
2018-05-13T01:05:25.334Z,1005.83
2018-05-13T01:06:25.511Z,1005.78
2018-05-13T01:07:25.409Z,1005.82
2018-05-13T01:08:25.394Z,1005.82
2018-05-13T01:09:25.413Z,1005.83
2018-05-13T01:10:25.421Z,1005.78
2018-05-13T01:11:25.441Z,1005.78
2018-05-13T01:12:25.463Z,1005.77
2018-05-13T01:13:25.479Z,1005.79
2018-05-13T01:14:25.502Z,1005.76
2018-05-13T01:15:25.513Z,1005.73
2018-05-13T01:16:25.531Z,1005.78
2018-05-13T01:17:25.551Z,1005.76
2018-05-13T01:18:25.616Z,1005.78
2018-05-13T01:19:25.587Z,1005.79
2018-05-13T01:20:25.604Z,1005.80
2018-05-13T01:21:25.625Z,1005.76
2018-05-13T01:22:25.643Z,1005.72
2018-05-13T01:23:25.656Z,1005.71
2018-05-13T01:24:25.675Z,1005.72
2018-05-13T01:25:25.740Z,1005.76
2018-05-13T01:26:25.711Z,1005.77
2018-05-13T01:27:25.729Z,1005.73
2018-05-13T01:28:25.746Z,1005.74
2018-05-13T01:29:25.763Z,1005.79
2018-05-13T01:30:25.780Z,1005.76
2018-05-13T01:31:25.803Z,1005.74
2018-05-13T01:32:25.893Z,1005.80
2018-05-13T01:33:25.846Z,1005.76
2018-05-13T01:34:25.855Z,1005.73
2018-05-13T01:35:25.923Z,1005.72
2018-05-13T01:36:25.888Z,1005.74
2018-05-13T01:37:25.906Z,1005.73
2018-05-13T01:38:25.923Z,1005.76
2018-05-13T01:39:25.959Z,1005.74
2018-05-13T01:40:26.004Z,1005.76
2018-05-13T01:41:25.976Z,1005.72
2018-05-13T01:42:25.993Z,1005.74
2018-05-13T01:43:26.009Z,1005.72
2018-05-13T01:44:26.025Z,1005.75
2018-05-13T01:45:26.040Z,1005.74
2018-05-13T01:46:26.060Z,1005.71
2018-05-13T01:47:26.075Z,1005.70
2018-05-13T01:48:26.093Z,1005.73
2018-05-13T01:49:26.111Z,1005.70
2018-05-13T01:50:26.128Z,1005.71
2018-05-13T01:51:26.246Z,1005.74
2018-05-13T01:52:26.170Z,1005.72
2018-05-13T01:53:26.182Z,1005.73
2018-05-13T01:54:26.200Z,1005.73
2018-05-13T01:55:26.223Z,1005.70
2018-05-13T01:56:26.235Z,1005.67
2018-05-13T01:57:26.258Z,1005.71
2018-05-13T01:58:26.270Z,1005.65
2018-05-13T01:59:26.289Z,1005.68
2018-05-13T02:00:26.305Z,1005.65
2018-05-13T02:01:26.324Z,1005.66
2018-05-13T02:02:26.342Z,1005.65
2018-05-13T02:03:26.362Z,1005.64
2018-05-13T02:04:26.376Z,1005.66
2018-05-13T02:05:26.394Z,1005.64
2018-05-13T02:06:26.411Z,1005.64
2018-05-13T02:07:26.433Z,1005.63
2018-05-13T02:08:26.448Z,1005.64
2018-05-13T02:09:26.463Z,1005.63
2018-05-13T02:10:26.482Z,1005.57
2018-05-13T02:11:26.559Z,1005.63
2018-05-13T02:12:26.529Z,1005.58
2018-05-13T02:13:26.534Z,1005.58
2018-05-13T02:14:26.635Z,1005.57
2018-05-13T02:15:26.569Z,1005.58
2018-05-13T02:16:26.585Z,1005.57
2018-05-13T02:17:26.607Z,1005.54
2018-05-13T02:18:26.623Z,1005.54
2018-05-13T02:19:26.642Z,1005.54
2018-05-13T02:20:26.661Z,1005.55
2018-05-13T02:21:26.675Z,1005.56
2018-05-13T02:22:26.693Z,1005.54
2018-05-13T02:23:26.710Z,1005.56
2018-05-13T02:24:26.747Z,1005.53
2018-05-13T02:25:26.751Z,1005.53
2018-05-13T02:26:26.763Z,1005.53
2018-05-13T02:27:26.784Z,1005.50
2018-05-13T02:28:26.799Z,1005.51
2018-05-13T02:29:26.814Z,1005.49
2018-05-13T02:30:26.836Z,1005.49
2018-05-13T02:31:26.851Z,1005.47
2018-05-13T02:32:26.872Z,1005.41
2018-05-13T02:33:26.890Z,1005.44
2018-05-13T02:34:26.909Z,1005.40
2018-05-13T02:35:26.925Z,1005.39
2018-05-13T02:36:26.946Z,1005.41
2018-05-13T02:37:26.963Z,1005.37
2018-05-13T02:38:26.975Z,1005.38
2018-05-13T02:39:26.991Z,1005.38
2018-05-13T02:40:27.013Z,1005.38
2018-05-13T02:41:27.029Z,1005.36
2018-05-13T02:42:27.046Z,1005.39
2018-05-13T02:43:27.090Z,1005.36
2018-05-13T02:44:27.081Z,1005.35
2018-05-13T02:45:27.097Z,1005.34
2018-05-13T02:46:27.149Z,1005.33
2018-05-13T02:47:27.132Z,1005.35
2018-05-13T02:48:27.157Z,1005.36
2018-05-13T02:49:27.168Z,1005.34
2018-05-13T02:50:27.186Z,1005.34
2018-05-13T02:51:27.203Z,1005.33
2018-05-13T02:52:27.221Z,1005.28
2018-05-13T02:53:27.239Z,1005.30
2018-05-13T02:54:27.260Z,1005.32
2018-05-13T02:55:27.276Z,1005.30
2018-05-13T02:56:27.397Z,1005.32
2018-05-13T02:57:27.326Z,1005.34
2018-05-13T02:58:27.337Z,1005.39
2018-05-13T02:59:27.341Z,1005.41
2018-05-13T03:00:27.360Z,1005.41
2018-05-13T03:01:27.410Z,1005.41
2018-05-13T03:02:27.395Z,1005.35
2018-05-13T03:03:27.415Z,1005.36
2018-05-13T03:04:27.429Z,1005.34
2018-05-13T03:05:27.446Z,1005.32
2018-05-13T03:06:27.466Z,1005.32
2018-05-13T03:07:27.484Z,1005.31
2018-05-13T03:08:27.510Z,1005.30
2018-05-13T03:09:27.520Z,1005.29
2018-05-13T03:10:27.547Z,1005.25
2018-05-13T03:11:27.555Z,1005.27
2018-05-13T03:12:27.571Z,1005.27
2018-05-13T03:13:27.589Z,1005.29
2018-05-13T03:14:27.612Z,1005.33
2018-05-13T03:15:27.676Z,1005.36
2018-05-13T03:16:27.961Z,1005.38
2018-05-13T03:17:27.663Z,1005.39
2018-05-13T03:18:27.680Z,1005.39
2018-05-13T03:19:27.692Z,1005.39
2018-05-13T03:20:27.716Z,1005.37
2018-05-13T03:21:27.745Z,1005.36
2018-05-13T03:22:27.748Z,1005.34
2018-05-13T03:23:27.767Z,1005.31
2018-05-13T03:24:27.781Z,1005.31
2018-05-13T03:25:27.808Z,1005.34
2018-05-13T03:26:27.824Z,1005.30
2018-05-13T03:27:27.844Z,1005.34
2018-05-13T03:28:27.858Z,1005.33
2018-05-13T03:29:27.879Z,1005.37
2018-05-13T03:30:27.890Z,1005.45
2018-05-13T03:31:27.916Z,1005.50
2018-05-13T03:32:27.927Z,1005.48
2018-05-13T03:33:27.940Z,1005.46
2018-05-13T03:34:27.955Z,1005.47
2018-05-13T03:35:27.973Z,1005.47
2018-05-13T03:36:27.993Z,1005.44
2018-05-13T03:37:28.014Z,1005.48
2018-05-13T03:38:28.034Z,1005.44
2018-05-13T03:39:28.048Z,1005.46
2018-05-13T03:40:28.066Z,1005.49
2018-05-13T03:41:28.085Z,1005.45
2018-05-13T03:42:28.104Z,1005.49
2018-05-13T03:43:28.115Z,1005.47
2018-05-13T03:44:28.134Z,1005.45
2018-05-13T03:45:28.197Z,1005.46
2018-05-13T03:46:28.167Z,1005.47
2018-05-13T03:47:28.183Z,1005.45
2018-05-13T03:48:28.204Z,1005.46
2018-05-13T03:49:28.218Z,1005.45
2018-05-13T03:50:28.246Z,1005.35
2018-05-13T03:51:28.303Z,1005.37
2018-05-13T03:52:28.303Z,1005.39
2018-05-13T03:53:28.293Z,1005.39
2018-05-13T03:54:28.462Z,1005.36
2018-05-13T03:55:28.667Z,1005.44
2018-05-13T03:56:28.364Z,1005.43
2018-05-13T03:57:28.359Z,1005.42
2018-05-13T03:58:28.376Z,1005.37
2018-05-13T03:59:28.396Z,1005.39
2018-05-13T04:00:28.412Z,1005.40
2018-05-13T04:01:28.436Z,1005.38
2018-05-13T04:02:28.458Z,1005.36
2018-05-13T04:03:28.464Z,1005.34
2018-05-13T04:04:28.481Z,1005.44
2018-05-13T04:05:28.508Z,1005.48
2018-05-13T04:06:28.517Z,1005.45
2018-05-13T04:07:28.580Z,1005.40
2018-05-13T04:08:28.555Z,1005.36
2018-05-13T04:09:28.569Z,1005.41
2018-05-13T04:10:28.593Z,1005.37
2018-05-13T04:11:28.607Z,1005.36
2018-05-13T04:12:28.624Z,1005.33
2018-05-13T04:13:28.640Z,1005.36
2018-05-13T04:14:28.673Z,1005.35
2018-05-13T04:15:28.675Z,1005.42
2018-05-13T04:16:28.692Z,1005.47
2018-05-13T04:17:28.710Z,1005.55
2018-05-13T04:18:28.760Z,1005.63
2018-05-13T04:19:28.746Z,1005.61
2018-05-13T04:20:28.767Z,1005.64
2018-05-13T04:21:28.784Z,1005.68
2018-05-13T04:22:28.804Z,1005.71
2018-05-13T04:23:28.821Z,1005.69
2018-05-13T04:24:28.841Z,1005.73
2018-05-13T04:25:28.851Z,1005.75
2018-05-13T04:26:28.868Z,1005.71
2018-05-13T04:27:28.888Z,1005.75
2018-05-13T04:28:28.904Z,1005.78
2018-05-13T04:29:28.923Z,1005.77
2018-05-13T04:30:28.944Z,1005.81
2018-05-13T04:31:28.957Z,1005.82
2018-05-13T04:32:28.975Z,1005.84
2018-05-13T04:33:28.988Z,1005.79
2018-05-13T04:34:29.010Z,1005.71
2018-05-13T04:35:29.029Z,1005.70
2018-05-13T04:36:29.047Z,1005.63
2018-05-13T04:37:29.059Z,1005.54
2018-05-13T04:38:29.075Z,1005.50
2018-05-13T04:39:29.095Z,1005.48
2018-05-13T04:40:29.111Z,1005.45
2018-05-13T04:41:29.131Z,1005.51
2018-05-13T04:42:29.149Z,1005.50
2018-05-13T04:43:29.166Z,1005.51
2018-05-13T04:44:29.184Z,1005.59
2018-05-13T04:45:29.203Z,1005.69
2018-05-13T04:46:29.224Z,1005.66
2018-05-13T04:47:29.243Z,1005.65
2018-05-13T04:48:29.255Z,1005.60
2018-05-13T04:49:29.269Z,1005.52
2018-05-13T04:50:29.289Z,1005.53
2018-05-13T04:51:29.307Z,1005.48
2018-05-13T04:52:29.320Z,1005.51
2018-05-13T04:53:29.338Z,1005.50
2018-05-13T04:54:29.355Z,1005.50
2018-05-13T04:55:29.374Z,1005.56
2018-05-13T04:56:29.421Z,1005.56
2018-05-13T04:57:29.411Z,1005.63
2018-05-13T04:58:29.429Z,1005.62
2018-05-13T04:59:29.442Z,1005.56
2018-05-13T05:00:29.470Z,1005.51
2018-05-13T05:01:29.479Z,1005.52
2018-05-13T05:02:29.509Z,1005.53
2018-05-13T05:03:29.513Z,1005.54
2018-05-13T05:04:29.550Z,1005.55
2018-05-13T05:05:29.549Z,1005.55
2018-05-13T05:06:29.564Z,1005.54
2018-05-13T05:07:29.651Z,1005.54
2018-05-13T05:08:29.600Z,1005.59
2018-05-13T05:09:29.617Z,1005.65
2018-05-13T05:10:29.646Z,1005.71
2018-05-13T05:11:29.654Z,1005.74
2018-05-13T05:12:29.670Z,1005.77
2018-05-13T05:13:29.691Z,1005.80
2018-05-13T05:14:29.705Z,1005.82
2018-05-13T05:15:29.727Z,1005.80
2018-05-13T05:16:29.741Z,1005.81
2018-05-13T05:17:29.770Z,1005.83
2018-05-13T05:18:29.777Z,1005.85
2018-05-13T05:19:29.798Z,1005.90
2018-05-13T05:20:29.819Z,1005.91
2018-05-13T05:21:29.830Z,1005.91
2018-05-13T05:22:29.847Z,1005.93
2018-05-13T05:23:29.900Z,1005.91
2018-05-13T05:24:29.888Z,1006.00
2018-05-13T05:25:29.895Z,1005.96
2018-05-13T05:26:29.915Z,1005.95
2018-05-13T05:27:29.932Z,1005.98
2018-05-13T05:28:29.950Z,1006.00
2018-05-13T05:29:29.966Z,1006.01
2018-05-13T05:30:29.990Z,1006.02
2018-05-13T05:31:30.005Z,1006.00
2018-05-13T05:32:30.037Z,1005.98
2018-05-13T05:33:30.036Z,1005.96
2018-05-13T05:34:30.057Z,1005.92
2018-05-13T05:35:30.072Z,1005.94
2018-05-13T05:36:30.090Z,1005.93
2018-05-13T05:37:30.112Z,1005.93
2018-05-13T05:38:30.133Z,1005.89
2018-05-13T05:39:30.140Z,1005.95
2018-05-13T05:40:30.160Z,1005.91
2018-05-13T05:41:30.177Z,1005.94
2018-05-13T05:42:30.203Z,1005.98
2018-05-13T05:43:30.212Z,1005.97
2018-05-13T05:44:30.245Z,1005.99
2018-05-13T05:45:30.248Z,1006.03
2018-05-13T05:46:30.266Z,1005.98
2018-05-13T05:47:30.284Z,1006.01
2018-05-13T05:48:30.306Z,1005.99
2018-05-13T05:49:30.332Z,1006.03
2018-05-13T05:50:30.345Z,1006.04
2018-05-13T05:51:30.358Z,1006.06
2018-05-13T05:52:30.448Z,1006.06
2018-05-13T05:53:30.394Z,1006.10
2018-05-13T05:54:30.412Z,1006.12
2018-05-13T05:55:30.432Z,1006.10
2018-05-13T05:56:30.447Z,1006.10
2018-05-13T05:57:30.469Z,1006.07
2018-05-13T05:58:30.482Z,1006.06
2018-05-13T05:59:30.507Z,1006.06
2018-05-13T06:00:30.522Z,1006.07
2018-05-13T06:01:30.541Z,1006.06
2018-05-13T06:02:30.559Z,1006.08
2018-05-13T06:03:30.577Z,1006.08
2018-05-13T06:04:30.606Z,1006.03
2018-05-13T06:05:30.615Z,1006.09
2018-05-13T06:06:30.627Z,1006.03
2018-05-13T06:07:30.645Z,1006.07
2018-05-13T06:08:30.661Z,1005.99
2018-05-13T06:09:30.683Z,1005.99
2018-05-13T06:10:30.700Z,1005.98
2018-05-13T06:11:30.744Z,1005.96
2018-05-13T06:12:30.734Z,1005.99
2018-05-13T06:13:30.757Z,1005.94
2018-05-13T06:14:30.775Z,1005.95
2018-05-13T06:15:30.796Z,1005.97
2018-05-13T06:16:30.810Z,1005.97
2018-05-13T06:17:30.829Z,1005.95
2018-05-13T06:18:30.850Z,1005.95
2018-05-13T06:19:30.956Z,1005.94
2018-05-13T06:20:30.881Z,1005.96
2018-05-13T06:21:30.911Z,1005.96
2018-05-13T06:22:30.921Z,1005.94
2018-05-13T06:23:30.940Z,1005.92
2018-05-13T06:24:30.957Z,1005.90
2018-05-13T06:25:30.974Z,1005.87
2018-05-13T06:26:30.993Z,1005.89
2018-05-13T06:27:31.008Z,1005.85
2018-05-13T06:28:31.029Z,1005.86
2018-05-13T06:29:31.042Z,1005.87
2018-05-13T06:30:31.063Z,1005.86
2018-05-13T06:31:31.184Z,1005.85
2018-05-13T06:32:31.113Z,1005.85
2018-05-13T06:33:31.115Z,1005.85
2018-05-13T06:34:31.142Z,1005.85
2018-05-13T06:35:31.165Z,1005.83
2018-05-13T06:36:31.223Z,1005.88
2018-05-13T06:37:31.225Z,1005.85
2018-05-13T06:38:31.251Z,1005.88
2018-05-13T06:39:31.307Z,1005.88
2018-05-13T06:40:31.254Z,1005.88
2018-05-13T06:41:31.261Z,1005.90
2018-05-13T06:42:31.287Z,1005.90
2018-05-13T06:43:31.299Z,1005.87
2018-05-13T06:44:31.323Z,1005.88
2018-05-13T06:45:31.337Z,1005.92
2018-05-13T06:46:31.355Z,1005.88
2018-05-13T06:47:31.374Z,1005.92
2018-05-13T06:48:31.396Z,1005.92
2018-05-13T06:49:31.410Z,1005.89
2018-05-13T06:50:31.441Z,1005.94
2018-05-13T06:51:31.477Z,1005.93
2018-05-13T06:52:31.463Z,1005.90
2018-05-13T06:54:31.499Z,1005.91
2018-05-13T06:55:31.516Z,1005.92
2018-05-13T06:56:31.534Z,1005.89
2018-05-13T06:57:31.553Z,1005.91
2018-05-13T06:58:31.575Z,1005.89
2018-05-13T06:59:31.590Z,1005.88
2018-05-13T07:00:31.610Z,1005.86
2018-05-13T07:01:31.625Z,1005.86
2018-05-13T07:02:31.644Z,1005.87
2018-05-13T07:03:32.044Z,1005.87
2018-05-13T07:04:32.002Z,1005.86
2018-05-13T07:05:32.026Z,1005.87
2018-05-13T07:06:31.718Z,1005.86
2018-05-13T07:07:31.749Z,1005.86
2018-05-13T07:08:31.748Z,1005.82
2018-05-13T07:09:31.764Z,1005.85
2018-05-13T07:10:31.783Z,1005.84
2018-05-13T07:11:31.803Z,1005.76
2018-05-13T07:12:31.838Z,1005.76
2018-05-13T07:13:31.841Z,1005.73
2018-05-13T07:14:31.862Z,1005.73
2018-05-13T07:15:31.873Z,1005.69
2018-05-13T07:16:31.986Z,1005.74
2018-05-13T07:17:31.914Z,1005.71
2018-05-13T07:18:31.929Z,1005.73
2018-05-13T07:19:31.948Z,1005.72
2018-05-13T07:20:31.970Z,1005.76
2018-05-13T07:21:31.984Z,1005.80
2018-05-13T07:22:32.005Z,1005.82
2018-05-13T07:23:32.022Z,1005.79
2018-05-13T07:24:32.039Z,1005.79
2018-05-13T07:25:32.060Z,1005.82
2018-05-13T07:26:32.077Z,1005.78
2018-05-13T07:27:32.095Z,1005.78
2018-05-13T07:28:32.117Z,1005.78
2018-05-13T07:29:32.130Z,1005.77
2018-05-13T07:30:32.148Z,1005.76
2018-05-13T07:31:32.175Z,1005.78
2018-05-13T07:32:32.186Z,1005.78
2018-05-13T07:33:32.203Z,1005.75
2018-05-13T07:34:32.224Z,1005.79
2018-05-13T07:35:32.242Z,1005.79
2018-05-13T07:36:32.262Z,1005.78
2018-05-13T07:37:32.277Z,1005.76
2018-05-13T07:38:32.297Z,1005.75
2018-05-13T07:39:32.314Z,1005.72
2018-05-13T07:40:32.334Z,1005.67
2018-05-13T07:41:32.354Z,1005.68
2018-05-13T07:42:32.370Z,1005.66
2018-05-13T07:43:32.430Z,1005.68
2018-05-13T07:44:32.413Z,1005.69
2018-05-13T07:45:32.484Z,1005.71
2018-05-13T07:46:32.441Z,1005.74
2018-05-13T07:47:32.466Z,1005.75
2018-05-13T07:48:32.481Z,1005.76
2018-05-13T07:49:32.500Z,1005.78
2018-05-13T07:50:32.518Z,1005.77
2018-05-13T07:51:32.533Z,1005.76
2018-05-13T07:52:32.554Z,1005.74
2018-05-13T07:53:32.576Z,1005.73
2018-05-13T07:54:32.589Z,1005.73
2018-05-13T07:55:32.616Z,1005.71
2018-05-13T07:56:32.626Z,1005.73
2018-05-13T07:57:32.644Z,1005.74
2018-05-13T07:58:32.667Z,1005.74
2018-05-13T07:59:32.686Z,1005.78
2018-05-13T08:00:32.771Z,1005.77
2018-05-13T08:01:32.717Z,1005.81
2018-05-13T08:02:32.741Z,1005.84
2018-05-13T08:03:32.755Z,1005.82
2018-05-13T08:04:32.777Z,1005.88
2018-05-13T08:05:32.793Z,1005.88
2018-05-13T08:06:32.814Z,1005.96
2018-05-13T08:07:32.833Z,1005.94
2018-05-13T08:08:32.853Z,1005.96
2018-05-13T08:09:32.869Z,1005.99
2018-05-13T08:10:32.885Z,1005.99
2018-05-13T08:11:32.906Z,1005.99
2018-05-13T08:12:32.925Z,1006.01
2018-05-13T08:13:32.949Z,1006.00
2018-05-13T08:14:32.972Z,1006.05
2018-05-13T08:15:32.981Z,1006.04
2018-05-13T08:16:33.004Z,1006.13
2018-05-13T08:17:33.018Z,1006.13
2018-05-13T08:18:33.037Z,1006.16
2018-05-13T08:19:33.053Z,1006.17
2018-05-13T08:20:33.141Z,1006.13
2018-05-13T08:21:33.100Z,1006.16
2018-05-13T08:22:33.112Z,1006.15
2018-05-13T08:23:33.130Z,1006.12
2018-05-13T08:24:33.157Z,1006.17
2018-05-13T08:25:33.165Z,1006.18
2018-05-13T08:26:33.188Z,1006.14
2018-05-13T08:27:33.208Z,1006.16
2018-05-13T08:28:33.224Z,1006.20
2018-05-13T08:29:33.255Z,1006.18
2018-05-13T08:30:33.261Z,1006.13
2018-05-13T08:31:33.290Z,1006.08
2018-05-13T08:32:33.312Z,1006.06
2018-05-13T08:33:33.318Z,1006.05
2018-05-13T08:34:33.342Z,1006.02
2018-05-13T08:35:33.365Z,1006.02
2018-05-13T08:36:33.384Z,1005.97
2018-05-13T08:37:33.394Z,1005.97
2018-05-13T08:38:33.410Z,1005.97
2018-05-13T08:39:33.436Z,1005.99
2018-05-13T08:40:33.452Z,1005.99
2018-05-13T08:41:33.469Z,1006.02
2018-05-13T08:42:33.491Z,1006.03
2018-05-13T08:43:33.511Z,1006.06
2018-05-13T08:44:33.530Z,1006.02
2018-05-13T08:45:33.545Z,1006.03
2018-05-13T08:46:33.564Z,1006.01
2018-05-13T08:47:33.587Z,1006.01
2018-05-13T08:48:33.621Z,1005.99
2018-05-13T08:49:33.630Z,1006.01
2018-05-13T08:50:33.641Z,1006.02
2018-05-13T08:51:33.661Z,1006.03
2018-05-13T08:52:33.691Z,1006.03
2018-05-13T08:53:33.699Z,1006.02
2018-05-13T08:54:33.714Z,1006.02
2018-05-13T08:55:33.739Z,1006.05
2018-05-13T08:56:33.755Z,1005.99
2018-05-13T08:57:33.779Z,1006.00
2018-05-13T08:58:33.793Z,1005.96
2018-05-13T08:59:33.825Z,1005.92
2018-05-13T09:00:33.833Z,1005.99
2018-05-13T09:01:33.851Z,1006.00
2018-05-13T09:02:33.872Z,1006.00
2018-05-13T09:03:33.893Z,1005.99
2018-05-13T09:04:33.912Z,1005.99
2018-05-13T09:05:33.930Z,1005.97
2018-05-13T09:06:33.951Z,1005.99
2018-05-13T09:07:33.964Z,1005.92
2018-05-13T09:08:34.147Z,1005.97
2018-05-13T09:09:34.008Z,1005.93
2018-05-13T09:10:34.022Z,1005.93
2018-05-13T09:11:34.041Z,1005.95
2018-05-13T09:12:34.064Z,1005.95
2018-05-13T09:13:34.078Z,1005.89
2018-05-13T09:14:34.108Z,1005.88
2018-05-13T09:15:34.116Z,1005.88
2018-05-13T09:16:34.140Z,1005.87
2018-05-13T09:17:34.171Z,1005.88
2018-05-13T09:18:34.180Z,1005.81
2018-05-13T09:19:34.194Z,1005.79
2018-05-13T09:20:34.276Z,1005.74
2018-05-13T09:21:34.232Z,1005.76
2018-05-13T09:22:34.253Z,1005.76
2018-05-13T09:23:34.268Z,1005.75
2018-05-13T09:24:34.285Z,1005.75
2018-05-13T09:25:34.308Z,1005.73
2018-05-13T09:26:34.413Z,1005.72
2018-05-13T09:27:34.345Z,1005.75
2018-05-13T09:28:34.371Z,1005.75
2018-05-13T09:29:34.383Z,1005.75
2018-05-13T09:30:34.421Z,1005.68
2018-05-13T09:31:34.418Z,1005.72
2018-05-13T09:32:34.448Z,1005.69
2018-05-13T09:33:34.489Z,1005.71
2018-05-13T09:34:34.480Z,1005.70
2018-05-13T09:35:34.505Z,1005.67
2018-05-13T09:36:34.618Z,1005.66
2018-05-13T09:37:34.623Z,1005.65
2018-05-13T09:38:34.562Z,1005.66
2018-05-13T09:39:34.641Z,1005.61
2018-05-13T09:40:34.596Z,1005.63
2018-05-13T09:41:34.615Z,1005.62
2018-05-13T09:42:34.632Z,1005.56
2018-05-13T09:43:34.651Z,1005.58
2018-05-13T09:44:34.679Z,1005.55
2018-05-13T09:45:34.694Z,1005.50
2018-05-13T09:46:34.793Z,1005.54
2018-05-13T09:47:34.734Z,1005.47
2018-05-13T09:48:34.749Z,1005.49
2018-05-13T09:49:34.771Z,1005.49
2018-05-13T09:50:34.808Z,1005.48
2018-05-13T09:51:34.812Z,1005.46
2018-05-13T09:52:34.835Z,1005.43
2018-05-13T09:53:34.844Z,1005.42
2018-05-13T09:54:34.865Z,1005.45
2018-05-13T09:55:34.885Z,1005.47
2018-05-13T09:56:34.907Z,1005.50
2018-05-13T09:57:34.926Z,1005.50
2018-05-13T09:58:34.943Z,1005.54
2018-05-13T09:59:34.964Z,1005.58
2018-05-13T10:00:34.986Z,1005.54
2018-05-13T10:01:35.003Z,1005.57
2018-05-13T10:02:35.026Z,1005.57
2018-05-13T10:03:35.058Z,1005.57
2018-05-13T10:04:35.067Z,1005.56
2018-05-13T10:05:35.081Z,1005.60
2018-05-13T10:06:35.103Z,1005.63
2018-05-13T10:07:35.121Z,1005.58
2018-05-13T10:08:35.141Z,1005.62
2018-05-13T10:09:35.255Z,1005.60
2018-05-13T10:10:35.254Z,1005.57
2018-05-13T10:11:35.207Z,1005.56
2018-05-13T10:12:35.224Z,1005.57
2018-05-13T10:13:35.241Z,1005.54
2018-05-13T10:14:35.317Z,1005.51
2018-05-13T10:15:35.283Z,1005.52
2018-05-13T10:16:35.309Z,1005.49
2018-05-13T10:17:35.341Z,1005.48
2018-05-13T10:18:35.344Z,1005.46
2018-05-13T10:19:35.414Z,1005.47
2018-05-13T10:20:35.418Z,1005.45
2018-05-13T10:21:35.403Z,1005.46
2018-05-13T10:22:35.427Z,1005.46
2018-05-13T10:23:35.451Z,1005.50
2018-05-13T10:24:35.470Z,1005.53
2018-05-13T10:25:35.484Z,1005.51
2018-05-13T10:26:35.505Z,1005.53
2018-05-13T10:27:35.527Z,1005.50
2018-05-13T10:28:35.548Z,1005.48
2018-05-13T10:29:35.567Z,1005.51
2018-05-13T10:30:35.591Z,1005.47
2018-05-13T10:31:35.607Z,1005.51
2018-05-13T10:32:35.627Z,1005.47
2018-05-13T10:33:35.648Z,1005.46
2018-05-13T10:34:35.720Z,1005.46
2018-05-13T10:35:35.699Z,1005.43
2018-05-13T10:36:35.711Z,1005.43
2018-05-13T10:37:35.729Z,1005.44
2018-05-13T10:38:35.754Z,1005.41
2018-05-13T10:39:35.773Z,1005.44
2018-05-13T10:40:35.799Z,1005.36
2018-05-13T10:41:35.817Z,1005.37
2018-05-13T10:42:35.837Z,1005.33
2018-05-13T10:43:35.860Z,1005.28
2018-05-13T10:44:35.883Z,1005.25
2018-05-13T10:45:35.903Z,1005.27
2018-05-13T10:46:35.917Z,1005.23
2018-05-13T10:47:35.940Z,1005.21
2018-05-13T10:48:36.013Z,1005.21
2018-05-13T10:49:35.983Z,1005.23
2018-05-13T10:50:36.001Z,1005.21
2018-05-13T10:51:36.030Z,1005.23
2018-05-13T10:52:36.048Z,1005.23
2018-05-13T10:53:36.067Z,1005.21
2018-05-13T10:54:36.084Z,1005.27
2018-05-13T10:55:36.105Z,1005.24
2018-05-13T10:56:36.124Z,1005.20
2018-05-13T10:57:36.152Z,1005.22
2018-05-13T10:58:36.179Z,1005.23
2018-05-13T10:59:36.191Z,1005.22
2018-05-13T11:00:36.208Z,1005.20
2018-05-13T11:01:36.229Z,1005.21
2018-05-13T11:02:36.266Z,1005.24
2018-05-13T11:03:36.272Z,1005.24
2018-05-13T11:04:36.301Z,1005.25
2018-05-13T11:05:36.312Z,1005.27
2018-05-13T11:06:36.335Z,1005.29
2018-05-13T11:07:36.357Z,1005.32
2018-05-13T11:08:36.425Z,1005.33
2018-05-13T11:09:36.399Z,1005.28
2018-05-13T11:10:36.420Z,1005.30
2018-05-13T11:11:36.458Z,1005.31
2018-05-13T11:12:36.462Z,1005.33
2018-05-13T11:13:36.481Z,1005.35
2018-05-13T11:14:36.512Z,1005.29
2018-05-13T11:15:36.526Z,1005.30
2018-05-13T11:16:36.549Z,1005.29
2018-05-13T11:17:36.570Z,1005.32
2018-05-13T11:18:36.599Z,1005.35
2018-05-13T11:19:36.620Z,1005.30
2018-05-13T11:20:36.675Z,1005.36
2018-05-13T11:21:36.660Z,1005.37
2018-05-13T11:22:36.687Z,1005.36
2018-05-13T11:23:36.699Z,1005.32
2018-05-13T11:24:36.720Z,1005.28
2018-05-13T11:25:36.748Z,1005.31
2018-05-13T11:26:36.764Z,1005.27
2018-05-13T11:27:36.886Z,1005.27
2018-05-13T11:28:36.808Z,1005.32
2018-05-13T11:29:36.828Z,1005.27
2018-05-13T11:30:36.855Z,1005.29
2018-05-13T11:31:36.877Z,1005.27
2018-05-13T11:32:36.896Z,1005.23
2018-05-13T11:33:36.925Z,1005.27
2018-05-13T11:34:36.940Z,1005.26
2018-05-13T11:35:36.961Z,1005.25
2018-05-13T11:36:36.983Z,1005.25
2018-05-13T11:37:37.005Z,1005.27
2018-05-13T11:38:37.023Z,1005.28
2018-05-13T11:39:37.050Z,1005.25
2018-05-13T11:40:37.079Z,1005.24
2018-05-13T11:41:37.094Z,1005.22
2018-05-13T11:42:37.121Z,1005.20
2018-05-13T11:43:37.136Z,1005.21
2018-05-13T11:44:37.162Z,1005.24
2018-05-13T11:45:37.188Z,1005.16
2018-05-13T11:46:37.270Z,1005.11
2018-05-13T11:47:37.223Z,1005.10
2018-05-13T11:48:37.244Z,1005.07
2018-05-13T11:49:37.269Z,1005.09
2018-05-13T11:50:37.292Z,1005.10
2018-05-13T11:51:37.312Z,1005.08
2018-05-13T11:52:37.333Z,1005.08
2018-05-13T11:53:37.376Z,1005.10
2018-05-13T11:54:37.382Z,1005.13
2018-05-13T11:55:37.402Z,1005.08
2018-05-13T11:56:37.421Z,1005.14
2018-05-13T11:57:37.442Z,1005.03
2018-05-13T11:58:37.468Z,1005.03
2018-05-13T11:59:37.490Z,1004.99
2018-05-13T12:00:37.512Z,1004.97
2018-05-13T12:01:37.534Z,1004.95
2018-05-13T12:02:37.555Z,1004.90
2018-05-13T12:03:37.579Z,1004.91
2018-05-13T12:04:37.606Z,1004.86
2018-05-13T12:05:37.624Z,1004.83
2018-05-13T12:06:37.649Z,1004.86
2018-05-13T12:07:37.673Z,1004.82